createdAt,value
2023-03-24T00:01:53.821Z,95101.00
2023-03-24T00:07:25.345Z,95092.00
2023-03-24T00:12:53.328Z,95078.00
2023-03-24T00:18:22.898Z,95069.00
2023-03-24T00:23:54.544Z,95049.00
2023-03-24T00:29:22.578Z,95039.00
2023-03-24T00:34:52.603Z,95033.00
2023-03-24T00:40:22.497Z,95004.00
2023-03-24T00:45:52.546Z,95011.00
2023-03-24T00:51:20.640Z,95009.00
2023-03-24T00:56:55.962Z,94999.00
2023-03-24T01:02:26.599Z,94993.00
2023-03-24T01:07:59.150Z,94991.00
2023-03-24T01:13:29.347Z,94995.00
2023-03-24T01:18:57.212Z,95003.00
2023-03-24T01:24:26.182Z,95017.00
2023-03-24T01:30:00.565Z,95020.00
2023-03-24T01:35:29.554Z,95022.00
2023-03-24T01:40:57.906Z,95001.00
2023-03-24T01:46:27.041Z,94990.00
2023-03-24T01:52:01.149Z,94987.00
2023-03-24T01:57:41.865Z,94982.00
2023-03-24T02:03:15.357Z,94972.00
2023-03-24T02:08:56.884Z,94988.00
2023-03-24T02:14:29.690Z,94989.00
2023-03-24T02:20:10.910Z,94984.00
2023-03-24T02:26:08.075Z,94986.00
2023-03-24T02:31:50.995Z,94979.00
2023-03-24T02:38:14.303Z,94988.00
2023-03-24T02:44:06.863Z,94989.00
2023-03-24T02:49:52.151Z,95000.00
2023-03-24T02:55:28.578Z,94995.00
2023-03-24T03:01:13.964Z,94975.00
2023-03-24T03:07:06.447Z,94971.00
2023-03-24T03:12:37.640Z,94960.00
2023-03-24T03:18:21.249Z,94964.00
2023-03-24T03:24:17.173Z,94960.00
2023-03-24T03:29:54.371Z,94952.00
2023-03-24T03:35:54.529Z,94947.00
2023-03-24T03:41:23.006Z,94941.00
2023-03-24T03:46:51.305Z,94920.00
2023-03-24T03:52:26.861Z,94921.00
2023-03-24T03:57:56.008Z,94897.00
2023-03-24T04:04:05.711Z,94878.00
2023-03-24T04:10:23.222Z,94862.00
2023-03-24T04:15:58.544Z,94863.00
2023-03-24T04:22:04.686Z,94856.00
2023-03-24T04:27:57.199Z,94858.00
2023-03-24T04:33:39.266Z,94861.00
2023-03-24T04:39:16.325Z,94866.00
2023-03-24T04:44:53.485Z,94863.00
2023-03-24T04:50:43.814Z,94856.00
2023-03-24T04:56:40.423Z,94859.00
2023-03-24T05:02:17.397Z,94873.00
2023-03-24T05:08:16.483Z,94881.00
2023-03-24T05:13:44.884Z,94872.00
2023-03-24T05:19:13.137Z,94882.00
2023-03-24T05:24:42.424Z,94896.00
2023-03-24T05:30:11.361Z,94909.00
2023-03-24T05:35:39.766Z,94903.00
2023-03-24T05:41:09.925Z,94910.00
2023-03-24T05:46:42.625Z,94921.00
2023-03-24T05:52:13.186Z,94926.00
2023-03-24T05:57:44.752Z,94911.00
2023-03-24T06:03:34.445Z,94933.00
2023-03-24T06:09:09.899Z,94923.00
2023-03-24T06:14:38.720Z,94922.00
2023-03-24T06:20:16.257Z,94907.00
2023-03-24T06:26:01.774Z,94883.00
2023-03-24T06:31:32.903Z,94859.00
2023-03-24T06:37:02.116Z,94854.00
2023-03-24T06:42:31.161Z,94877.00
2023-03-24T06:47:59.888Z,94861.00
2023-03-24T06:53:28.206Z,94859.00
2023-03-24T06:59:01.407Z,94856.00
2023-03-24T07:04:36.730Z,94868.00
2023-03-24T07:10:27.012Z,94872.00
2023-03-24T07:15:57.134Z,94870.00
2023-03-24T07:21:26.151Z,94898.00
2023-03-24T07:26:58.340Z,94897.00
2023-03-24T07:32:28.881Z,94906.00
2023-03-24T07:38:01.995Z,94929.00
2023-03-24T07:43:30.795Z,94949.00
2023-03-24T07:49:12.263Z,94976.00
2023-03-24T07:54:50.712Z,94978.00
2023-03-24T08:00:45.331Z,94979.00
2023-03-24T08:06:26.756Z,94975.00
2023-03-24T08:11:58.975Z,94982.00
2023-03-24T08:17:31.043Z,94990.00
2023-03-24T08:22:59.048Z,94979.00
2023-03-24T08:28:27.077Z,94977.00
2023-03-24T08:33:54.941Z,94982.00
2023-03-24T08:39:24.325Z,94994.00
2023-03-24T08:44:52.942Z,94988.00
2023-03-24T08:50:24.024Z,95000.00
2023-03-24T08:55:52.530Z,95013.00
2023-03-24T09:01:24.070Z,95019.00
2023-03-24T09:06:53.784Z,95021.00
2023-03-24T09:12:21.724Z,95024.00
2023-03-24T09:17:49.668Z,95025.00
2023-03-24T09:23:18.143Z,95018.00
2023-03-24T09:28:46.364Z,95026.00
2023-03-24T09:34:14.283Z,95033.00
2023-03-24T09:39:42.181Z,95043.00
2023-03-24T09:45:18.981Z,95044.00
2023-03-24T09:50:56.140Z,95047.00
2023-03-24T09:56:26.366Z,95054.00
2023-03-24T10:01:54.203Z,95060.00
2023-03-24T10:08:00.138Z,95066.00
2023-03-24T10:14:12.700Z,95064.00
2023-03-24T10:19:52.248Z,95065.00
2023-03-24T10:25:46.089Z,95097.00
2023-03-24T10:31:16.718Z,95099.00
2023-03-24T10:36:45.474Z,95106.00
2023-03-24T10:42:28.828Z,95104.00
2023-03-24T10:48:02.400Z,95107.00
2023-03-24T10:53:30.305Z,95108.00
2023-03-24T10:58:58.160Z,95106.00
2023-03-24T11:04:28.602Z,95117.00
2023-03-24T11:10:13.794Z,95125.00
2023-03-24T11:16:14.830Z,95113.00
2023-03-24T11:21:43.532Z,95093.00
2023-03-24T11:27:16.632Z,95105.00
2023-03-24T11:32:48.303Z,95104.00
2023-03-24T11:38:29.884Z,95098.00
2023-03-24T11:44:24.668Z,95056.00
2023-03-24T11:50:31.675Z,95034.00
2023-03-24T11:56:18.918Z,95039.00
2023-03-24T12:02:14.700Z,95029.00
2023-03-24T12:08:27.276Z,95031.00
2023-03-24T12:13:57.818Z,95024.00
2023-03-24T12:19:48.964Z,95014.00
2023-03-24T12:25:34.972Z,95011.00
2023-03-24T12:31:18.095Z,95001.00
2023-03-24T12:37:19.674Z,94993.00
2023-03-24T12:42:48.047Z,94996.00
2023-03-24T12:48:40.195Z,95016.00
2023-03-24T12:54:34.814Z,95012.00
2023-03-24T13:00:29.439Z,95031.00
2023-03-24T13:06:16.939Z,95026.00
2023-03-24T13:12:15.679Z,95019.00
2023-03-24T13:18:36.968Z,95014.00
2023-03-24T13:24:14.823Z,95015.00
2023-03-24T13:30:08.988Z,95019.00
2023-03-24T13:36:00.102Z,95003.00
2023-03-24T13:41:37.738Z,94990.00
2023-03-24T13:47:12.565Z,94989.00
2023-03-24T13:52:49.522Z,94976.00
2023-03-24T13:58:25.583Z,94979.00
2023-03-24T14:04:19.659Z,94959.00
2023-03-24T14:10:16.690Z,94924.00
2023-03-24T14:15:58.036Z,94927.00
2023-03-24T14:21:31.679Z,94921.00
2023-03-24T14:26:59.579Z,94929.00
2023-03-24T14:32:27.540Z,94910.00
2023-03-24T14:38:00.270Z,94902.00
2023-03-24T14:43:32.470Z,94899.00
2023-03-24T14:49:32.989Z,94893.00
2023-03-24T14:55:10.113Z,94875.00
2023-03-24T15:01:03.835Z,94889.00
2023-03-24T15:06:46.968Z,94902.00
2023-03-24T15:12:15.006Z,94913.00
2023-03-24T15:17:44.617Z,94919.00
2023-03-24T15:23:23.935Z,94916.00
2023-03-24T15:29:11.535Z,94932.00
2023-03-24T15:34:54.612Z,94937.00
2023-03-24T15:40:26.453Z,94945.00
2023-03-24T15:46:08.799Z,94958.00
2023-03-24T15:52:18.715Z,94965.00
2023-03-24T15:57:47.953Z,94983.00
2023-03-24T16:03:18.072Z,94981.00
2023-03-24T16:08:49.732Z,94982.00
2023-03-24T16:14:29.033Z,95015.00
2023-03-24T16:19:56.834Z,95012.00
2023-03-24T16:25:26.631Z,95017.00
2023-03-24T16:31:03.542Z,95034.00
2023-03-24T16:36:31.692Z,95030.00
2023-03-24T16:41:59.544Z,95004.00
2023-03-24T16:47:27.510Z,95005.00
2023-03-24T16:52:55.377Z,94990.00
2023-03-24T16:58:26.208Z,95004.00
2023-03-24T17:03:59.897Z,94976.00
2023-03-24T17:09:30.700Z,94935.00
2023-03-24T17:14:58.703Z,94958.00
2023-03-24T17:20:29.687Z,94991.00
2023-03-24T17:25:57.653Z,94990.00
2023-03-24T17:31:25.751Z,95005.00
2023-03-24T17:36:53.649Z,95003.00
2023-03-24T17:42:22.176Z,94999.00
2023-03-24T17:47:50.093Z,94993.00
2023-03-24T17:53:25.843Z,94977.00
2023-03-24T17:58:55.071Z,94993.00
2023-03-24T18:04:24.060Z,94982.00
2023-03-24T18:09:51.971Z,94979.00
2023-03-24T18:15:19.775Z,95014.00
2023-03-24T18:20:48.771Z,95016.00
2023-03-24T18:26:18.142Z,95016.00
2023-03-24T18:31:53.220Z,95025.00
2023-03-24T18:37:21.103Z,95019.00
2023-03-24T18:42:48.967Z,95022.00
2023-03-24T18:48:16.906Z,95024.00
2023-03-24T18:53:44.819Z,95011.00
2023-03-24T18:59:12.786Z,95020.00
2023-03-24T19:04:40.896Z,95032.00
2023-03-24T19:10:09.137Z,95041.00
2023-03-24T19:15:37.216Z,95062.00
2023-03-24T19:21:07.024Z,95072.00
2023-03-24T19:26:35.019Z,95070.00
2023-03-24T19:32:04.247Z,95074.00
2023-03-24T19:37:37.677Z,95085.00
2023-03-24T19:43:05.536Z,95087.00
2023-03-24T19:48:34.766Z,95108.00
2023-03-24T19:54:04.169Z,95120.00
2023-03-24T19:59:32.041Z,95102.00
2023-03-24T20:05:00.044Z,95108.00
2023-03-24T20:10:28.742Z,95106.00
2023-03-24T20:15:57.170Z,95107.00
2023-03-24T20:21:25.484Z,95096.00
2023-03-24T20:26:53.387Z,95086.00
2023-03-24T20:32:21.444Z,95071.00
2023-03-24T20:37:49.385Z,95063.00
2023-03-24T20:43:20.618Z,95058.00
2023-03-24T20:48:48.541Z,95056.00
2023-03-24T20:54:19.181Z,95048.00
2023-03-24T20:59:48.480Z,95049.00
2023-03-24T21:05:16.806Z,95060.00
2023-03-24T21:10:44.958Z,95055.00
2023-03-24T21:16:14.040Z,95057.00
2023-03-24T21:21:42.973Z,95055.00
2023-03-24T21:27:11.078Z,95079.00
2023-03-24T21:32:40.109Z,95078.00
2023-03-24T21:38:09.692Z,95099.00
2023-03-24T21:43:38.361Z,95098.00
2023-03-24T21:49:06.468Z,95092.00
2023-03-24T21:54:34.411Z,95108.00
2023-03-24T22:00:09.868Z,95120.00
2023-03-24T22:05:41.053Z,95114.00
2023-03-24T22:11:11.118Z,95121.00
2023-03-24T22:16:39.403Z,95119.00
2023-03-24T22:22:07.488Z,95113.00
2023-03-24T22:27:35.888Z,95127.00
2023-03-24T22:33:03.933Z,95120.00
2023-03-24T22:38:32.146Z,95135.00
2023-03-24T22:43:59.960Z,95131.00
2023-03-24T22:49:29.098Z,95122.00
2023-03-24T22:54:56.926Z,95141.00
2023-03-24T23:00:25.982Z,95140.00
2023-03-24T23:05:53.926Z,95133.00
2023-03-24T23:11:22.243Z,95141.00
2023-03-24T23:16:56.605Z,95164.00
2023-03-24T23:22:24.852Z,95157.00
2023-03-24T23:27:59.842Z,95162.00
2023-03-24T23:33:27.940Z,95159.00
2023-03-24T23:38:56.206Z,95159.00
2023-03-24T23:44:25.509Z,95156.00
2023-03-24T23:49:53.438Z,95168.00
2023-03-24T23:55:22.893Z,95166.00
